createdAt,value
2023-03-05T00:01:16.433Z,83.42
2023-03-05T00:03:43.136Z,83.43
2023-03-05T00:06:09.804Z,83.69
2023-03-05T00:08:36.469Z,83.12
2023-03-05T00:11:05.059Z,83.34
2023-03-05T00:13:32.883Z,83.83
2023-03-05T00:16:02.845Z,83.46
2023-03-05T00:18:29.449Z,83.82
2023-03-05T00:20:56.489Z,83.87
2023-03-05T00:23:23.078Z,83.78
2023-03-05T00:25:49.749Z,83.29
2023-03-05T00:28:16.332Z,83.05
2023-03-05T00:30:43.015Z,83.20
2023-03-05T00:33:13.740Z,83.22
2023-03-05T00:35:40.625Z,82.75
2023-03-05T00:38:07.309Z,82.94
2023-03-05T00:40:36.526Z,83.14
2023-03-05T00:43:03.400Z,82.87
2023-03-05T00:45:30.024Z,82.77
2023-03-05T00:47:56.574Z,83.01
2023-03-05T00:50:25.009Z,82.94
2023-03-05T00:52:52.117Z,82.75
2023-03-05T00:55:18.751Z,82.74
2023-03-05T00:57:45.528Z,82.70
2023-03-05T01:00:13.789Z,83.31
2023-03-05T01:02:40.676Z,83.04
2023-03-05T01:05:10.158Z,83.01
2023-03-05T01:07:38.328Z,83.36
2023-03-05T01:10:06.309Z,82.87
2023-03-05T01:12:32.966Z,83.25
2023-03-05T01:14:59.550Z,83.40
2023-03-05T01:17:26.125Z,83.40
2023-03-05T01:19:52.693Z,83.48
2023-03-05T01:22:19.303Z,83.82
2023-03-05T01:24:47.359Z,83.90
2023-03-05T01:27:13.950Z,83.51
2023-03-05T01:29:40.884Z,83.96
2023-03-05T01:32:07.482Z,83.89
2023-03-05T01:34:36.328Z,84.10
2023-03-05T01:37:03.163Z,84.39
2023-03-05T01:39:29.700Z,84.05
2023-03-05T01:41:57.660Z,83.87
2023-03-05T01:44:26.114Z,83.89
2023-03-05T01:46:53.259Z,84.07
2023-03-05T01:49:24.473Z,84.07
2023-03-05T01:51:58.871Z,84.16
2023-03-05T01:54:29.245Z,83.85
2023-03-05T01:57:00.333Z,84.17
2023-03-05T01:59:27.755Z,83.78
2023-03-05T02:01:57.630Z,84.11
2023-03-05T02:04:32.329Z,84.11
2023-03-05T02:06:59.522Z,83.87
2023-03-05T02:09:27.310Z,84.17
2023-03-05T02:11:55.203Z,84.56
2023-03-05T02:14:23.354Z,84.53
2023-03-05T02:16:50.479Z,83.62
2023-03-05T02:19:17.506Z,84.14
2023-03-05T02:21:47.220Z,84.21
2023-03-05T02:24:16.121Z,85.01
2023-03-05T02:26:43.316Z,85.01
2023-03-05T02:29:12.867Z,84.80
2023-03-05T02:31:39.561Z,85.09
2023-03-05T02:34:06.327Z,85.12
2023-03-05T02:36:33.717Z,84.53
2023-03-05T02:39:02.127Z,84.33
2023-03-05T02:41:28.933Z,84.97
2023-03-05T02:43:58.025Z,84.44
2023-03-05T02:46:25.346Z,84.47
2023-03-05T02:48:51.925Z,84.28
2023-03-05T02:51:19.000Z,84.31
2023-03-05T02:53:46.937Z,84.03
2023-03-05T02:56:15.508Z,83.92
2023-03-05T02:58:42.091Z,84.13
2023-03-05T03:01:09.653Z,83.71
2023-03-05T03:03:36.556Z,84.09
2023-03-05T03:06:03.475Z,84.16
2023-03-05T03:08:30.030Z,83.86
2023-03-05T03:10:56.634Z,84.13
2023-03-05T03:13:24.747Z,83.93
2023-03-05T03:15:51.308Z,84.33
2023-03-05T03:18:17.902Z,83.88
2023-03-05T03:20:44.622Z,83.69
2023-03-05T03:23:11.151Z,83.72
2023-03-05T03:25:37.707Z,83.95
2023-03-05T03:28:04.273Z,83.77
2023-03-05T03:30:32.242Z,83.71
2023-03-05T03:32:58.849Z,82.39
2023-03-05T03:35:25.405Z,82.86
2023-03-05T03:37:51.941Z,83.39
2023-03-05T03:40:18.729Z,83.09
2023-03-05T03:42:45.289Z,83.22
2023-03-05T03:45:13.031Z,83.11
2023-03-05T03:47:40.963Z,82.98
2023-03-05T03:50:08.699Z,83.35
2023-03-05T03:52:35.265Z,83.61
2023-03-05T03:55:01.846Z,83.45
2023-03-05T03:57:29.623Z,83.67
2023-03-05T03:59:56.265Z,83.77
2023-03-05T04:02:23.102Z,83.81
2023-03-05T04:04:51.147Z,83.53
2023-03-05T04:07:18.040Z,83.36
2023-03-05T04:09:45.151Z,83.48
2023-03-05T04:12:11.925Z,83.59
2023-03-05T04:14:38.496Z,83.52
2023-03-05T04:17:05.105Z,83.29
2023-03-05T04:19:31.607Z,83.45
2023-03-05T04:21:59.506Z,83.92
2023-03-05T04:24:26.051Z,83.45
2023-03-05T04:26:52.666Z,84.06
2023-03-05T04:29:19.476Z,83.86
2023-03-05T04:31:46.317Z,83.79
2023-03-05T04:34:12.902Z,83.34
2023-03-05T04:36:39.723Z,83.68
2023-03-05T04:39:07.674Z,83.57
2023-03-05T04:41:34.225Z,83.42
2023-03-05T04:44:00.738Z,83.25
2023-03-05T04:46:27.287Z,83.61
2023-03-05T04:48:53.914Z,83.12
2023-03-05T04:51:20.476Z,83.46
2023-03-05T04:53:47.077Z,83.16
2023-03-05T04:56:14.956Z,83.17
2023-03-05T04:58:41.522Z,83.83
2023-03-05T05:01:08.071Z,83.81
2023-03-05T05:03:34.661Z,83.38
2023-03-05T05:06:01.754Z,83.47
2023-03-05T05:08:28.899Z,83.80
2023-03-05T05:10:57.139Z,84.26
2023-03-05T05:13:25.921Z,84.41
2023-03-05T05:15:52.865Z,83.70
2023-03-05T05:18:19.937Z,84.22
2023-03-05T05:20:46.812Z,84.06
2023-03-05T05:23:13.568Z,84.25
2023-03-05T05:25:40.140Z,84.30
2023-03-05T05:28:06.960Z,84.44
2023-03-05T05:30:35.025Z,84.75
2023-03-05T05:33:01.642Z,85.29
2023-03-05T05:35:28.495Z,85.01
2023-03-05T05:37:55.052Z,85.24
2023-03-05T05:40:21.604Z,85.44
2023-03-05T05:42:48.214Z,85.14
2023-03-05T05:45:14.844Z,84.88
2023-03-05T05:47:42.750Z,85.34
2023-03-05T05:50:11.325Z,85.24
2023-03-05T05:52:37.903Z,84.93
2023-03-05T05:55:05.598Z,85.20
2023-03-05T05:57:32.234Z,85.36
2023-03-05T05:59:58.786Z,84.95
2023-03-05T06:02:25.430Z,84.76
2023-03-05T06:04:53.301Z,85.10
2023-03-05T06:07:19.868Z,85.29
2023-03-05T06:09:46.402Z,85.70
2023-03-05T06:12:12.929Z,85.53
2023-03-05T06:14:39.482Z,85.61
2023-03-05T06:17:06.007Z,85.40
2023-03-05T06:19:32.776Z,85.82
2023-03-05T06:22:00.707Z,86.23
2023-03-05T06:24:27.520Z,85.91
2023-03-05T06:26:54.043Z,86.07
2023-03-05T06:29:20.590Z,86.05
2023-03-05T06:31:47.118Z,85.74
2023-03-05T06:34:13.929Z,85.75
2023-03-05T06:36:40.478Z,86.29
2023-03-05T06:39:08.608Z,86.08
2023-03-05T06:41:35.185Z,85.96
2023-03-05T06:44:02.467Z,86.34
2023-03-05T06:46:30.560Z,86.09
2023-03-05T06:48:59.923Z,85.96
2023-03-05T06:51:28.621Z,85.62
2023-03-05T06:53:56.830Z,85.50
2023-03-05T06:56:24.801Z,85.72
2023-03-05T06:58:52.136Z,85.52
2023-03-05T07:01:19.397Z,85.54
2023-03-05T07:03:49.566Z,85.34
2023-03-05T07:06:16.533Z,85.12
2023-03-05T07:08:43.649Z,84.85
2023-03-05T07:11:10.758Z,84.48
2023-03-05T07:13:38.734Z,84.61
2023-03-05T07:16:07.207Z,84.87
2023-03-05T07:18:34.209Z,84.38
2023-03-05T07:21:02.919Z,84.46
2023-03-05T07:23:29.451Z,84.40
2023-03-05T07:25:56.146Z,85.04
2023-03-05T07:28:23.432Z,84.49
2023-03-05T07:30:57.029Z,84.87
2023-03-05T07:33:24.094Z,84.52
2023-03-05T07:35:50.685Z,83.58
2023-03-05T07:38:17.403Z,83.97
2023-03-05T07:40:44.234Z,83.69
2023-03-05T07:43:11.179Z,83.73
2023-03-05T07:45:40.146Z,83.95
2023-03-05T07:48:13.446Z,83.86
2023-03-05T07:50:40.431Z,83.42
2023-03-05T07:53:07.097Z,83.64
2023-03-05T07:55:33.974Z,83.31
2023-03-05T07:58:00.567Z,83.11
2023-03-05T08:00:27.361Z,83.20
2023-03-05T08:02:53.961Z,83.58
2023-03-05T08:05:21.872Z,83.09
2023-03-05T08:07:48.403Z,83.33
2023-03-05T08:10:15.027Z,82.26
2023-03-05T08:12:41.815Z,82.77
2023-03-05T08:15:09.149Z,82.23
2023-03-05T08:17:35.793Z,81.87
2023-03-05T08:20:02.449Z,81.63
2023-03-05T08:22:30.324Z,82.23
2023-03-05T08:24:57.264Z,81.33
2023-03-05T08:27:23.797Z,81.49
2023-03-05T08:29:50.451Z,81.47
2023-03-05T08:32:17.165Z,80.69
2023-03-05T08:34:44.150Z,81.10
2023-03-05T08:37:10.685Z,79.69
2023-03-05T08:39:38.645Z,79.90
2023-03-05T08:42:08.827Z,78.96
2023-03-05T08:44:35.641Z,78.89
2023-03-05T08:47:02.184Z,78.16
2023-03-05T08:49:28.772Z,78.39
2023-03-05T08:51:55.290Z,77.50
2023-03-05T08:54:21.977Z,76.63
2023-03-05T08:56:50.141Z,76.48
2023-03-05T08:59:16.761Z,76.79
2023-03-05T09:01:43.364Z,77.02
2023-03-05T09:04:10.042Z,76.17
2023-03-05T09:06:36.735Z,76.75
2023-03-05T09:09:03.567Z,76.38
2023-03-05T09:11:30.225Z,76.11
2023-03-05T09:13:58.233Z,76.26
2023-03-05T09:16:24.810Z,75.86
2023-03-05T09:18:51.483Z,76.02
2023-03-05T09:21:18.100Z,75.73
2023-03-05T09:23:45.225Z,75.29
2023-03-05T09:26:12.856Z,75.68
2023-03-05T09:28:39.562Z,74.92
2023-03-05T09:31:09.226Z,73.93
2023-03-05T09:33:37.393Z,73.09
2023-03-05T09:36:05.034Z,73.83
2023-03-05T09:38:31.810Z,73.39
2023-03-05T09:41:03.094Z,73.33
2023-03-05T09:43:40.181Z,73.83
2023-03-05T09:46:18.528Z,74.36
2023-03-05T09:48:51.525Z,73.27
2023-03-05T09:51:22.665Z,74.14
2023-03-05T09:53:54.721Z,74.29
2023-03-05T09:56:23.655Z,73.72
2023-03-05T09:58:54.638Z,72.93
2023-03-05T10:01:29.057Z,73.15
2023-03-05T10:03:57.678Z,72.88
2023-03-05T10:06:27.129Z,73.36
2023-03-05T10:08:56.525Z,74.07
2023-03-05T10:11:38.046Z,73.23
2023-03-05T10:14:05.150Z,73.80
2023-03-05T10:16:49.417Z,73.52
2023-03-05T10:19:29.356Z,74.12
2023-03-05T10:22:11.044Z,72.78
2023-03-05T10:24:50.214Z,73.22
2023-03-05T10:27:20.431Z,73.50
2023-03-05T10:30:03.073Z,74.28
2023-03-05T10:32:40.562Z,75.24
2023-03-05T10:35:19.676Z,74.05
2023-03-05T10:38:04.229Z,75.10
2023-03-05T10:40:36.274Z,73.91
2023-03-05T10:43:12.956Z,74.59
2023-03-05T10:45:43.048Z,74.45
2023-03-05T10:48:19.153Z,73.56
2023-03-05T10:50:49.855Z,74.22
2023-03-05T10:53:24.204Z,72.60
2023-03-05T10:55:50.922Z,72.39
2023-03-05T10:58:17.929Z,71.41
2023-03-05T11:00:58.949Z,70.69
2023-03-05T11:03:45.285Z,72.08
2023-03-05T11:06:12.800Z,72.21
2023-03-05T11:08:39.752Z,73.38
2023-03-05T11:11:16.563Z,73.54
2023-03-05T11:13:56.283Z,74.72
2023-03-05T11:16:25.111Z,76.38
2023-03-05T11:19:15.573Z,77.41
2023-03-05T11:21:43.991Z,78.86
2023-03-05T11:24:13.345Z,80.12
2023-03-05T11:26:46.904Z,80.31
2023-03-05T11:29:18.798Z,81.06
2023-03-05T11:31:45.182Z,81.86
2023-03-05T11:34:29.215Z,81.62
2023-03-05T11:37:00.794Z,82.40
2023-03-05T11:39:27.897Z,82.21
2023-03-05T11:41:58.930Z,82.63
2023-03-05T11:44:29.360Z,82.28
2023-03-05T11:47:00.267Z,82.47
2023-03-05T11:49:30.135Z,82.35
2023-03-05T11:52:03.723Z,82.78
2023-03-05T11:54:36.775Z,82.17
2023-03-05T11:57:05.977Z,81.84
2023-03-05T11:59:37.345Z,82.12
2023-03-05T12:02:14.163Z,81.95
2023-03-05T12:04:42.066Z,82.32
2023-03-05T12:07:13.458Z,82.57
2023-03-05T12:09:42.763Z,82.38
2023-03-05T12:12:23.263Z,82.71
2023-03-05T12:14:56.702Z,82.80
2023-03-05T12:17:30.871Z,82.74
2023-03-05T12:20:05.980Z,82.55
2023-03-05T12:22:37.190Z,83.00
2023-03-05T12:25:34.506Z,83.86
2023-03-05T12:28:01.803Z,83.86
2023-03-05T12:30:53.502Z,84.24
2023-03-05T12:33:34.399Z,83.94
2023-03-05T12:36:37.228Z,84.67
2023-03-05T12:39:37.166Z,83.84
2023-03-05T12:42:51.550Z,84.40
2023-03-05T12:45:27.532Z,83.98
2023-03-05T12:48:31.454Z,83.64
2023-03-05T12:50:58.644Z,84.03
2023-03-05T12:53:25.126Z,84.24
2023-03-05T12:55:58.063Z,84.02
2023-03-05T12:58:36.647Z,83.90
2023-03-05T13:01:14.370Z,83.15
2023-03-05T13:03:48.426Z,82.53
2023-03-05T13:06:28.275Z,82.13
2023-03-05T13:08:59.831Z,82.38
2023-03-05T13:11:28.267Z,81.84
2023-03-05T13:13:57.578Z,82.10
2023-03-05T13:16:27.246Z,81.65
2023-03-05T13:18:54.846Z,81.39
2023-03-05T13:21:25.564Z,79.36
2023-03-05T13:23:53.341Z,79.16
2023-03-05T13:26:20.546Z,78.14
2023-03-05T13:31:43.059Z,77.79
2023-03-05T13:34:15.867Z,76.30
2023-03-05T13:36:47.616Z,77.59
2023-03-05T13:39:21.687Z,77.95
2023-03-05T13:41:59.884Z,78.08
2023-03-05T13:44:28.408Z,77.42
2023-03-05T13:47:07.519Z,76.18
2023-03-05T13:49:34.168Z,75.52
2023-03-05T13:52:00.702Z,76.37
2023-03-05T13:54:28.594Z,76.06
2023-03-05T13:56:57.135Z,74.86
2023-03-05T13:59:25.334Z,73.06
2023-03-05T14:01:53.856Z,74.54
2023-03-05T14:04:23.503Z,74.01
2023-03-05T14:06:54.786Z,75.00
2023-03-05T14:09:24.183Z,73.15
2023-03-05T14:11:56.128Z,75.10
2023-03-05T14:14:24.486Z,74.15
2023-03-05T14:16:53.669Z,74.11
2023-03-05T14:19:34.322Z,74.55
2023-03-05T14:22:01.756Z,74.81
2023-03-05T14:24:29.193Z,73.75
2023-03-05T14:26:56.910Z,74.19
2023-03-05T14:29:26.170Z,73.93
2023-03-05T14:31:57.585Z,73.56
2023-03-05T14:34:29.477Z,74.24
2023-03-05T14:36:57.938Z,73.31
2023-03-05T14:39:31.298Z,74.10
2023-03-05T14:42:27.668Z,72.02
2023-03-05T14:44:55.300Z,72.22
2023-03-05T14:47:23.326Z,73.07
2023-03-05T14:49:50.374Z,73.41
2023-03-05T14:52:19.008Z,73.99
2023-03-05T14:54:46.360Z,73.10
2023-03-05T14:57:16.713Z,73.21
2023-03-05T14:59:43.484Z,73.11
2023-03-05T15:02:15.006Z,72.67
2023-03-05T15:04:43.079Z,73.69
2023-03-05T15:07:16.188Z,73.62
2023-03-05T15:09:42.871Z,73.90
2023-03-05T15:12:11.365Z,73.83
2023-03-05T15:14:37.993Z,74.28
2023-03-05T15:17:04.830Z,73.82
2023-03-05T15:19:31.461Z,72.79
2023-03-05T15:21:59.415Z,73.19
2023-03-05T15:24:26.014Z,72.10
2023-03-05T15:26:52.710Z,72.90
2023-03-05T15:29:19.526Z,73.23
2023-03-05T15:31:46.063Z,72.96
2023-03-05T15:34:12.723Z,73.03
2023-03-05T15:36:39.247Z,73.26
2023-03-05T15:39:07.231Z,73.20
2023-03-05T15:41:33.994Z,72.87
2023-03-05T15:44:00.690Z,73.21
2023-03-05T15:46:27.325Z,73.78
2023-03-05T15:48:54.021Z,72.99
2023-03-05T15:51:20.638Z,72.96
2023-03-05T15:53:47.508Z,73.74
2023-03-05T15:56:16.177Z,73.74
2023-03-05T15:58:42.830Z,73.62
2023-03-05T16:01:09.393Z,73.14
2023-03-05T16:03:36.063Z,73.55
2023-03-05T16:06:03.147Z,74.11
2023-03-05T16:08:29.787Z,74.60
2023-03-05T16:10:56.312Z,75.04
2023-03-05T16:13:24.429Z,75.07
2023-03-05T16:15:50.971Z,74.76
2023-03-05T16:18:17.569Z,75.58
2023-03-05T16:20:44.613Z,75.66
2023-03-05T16:23:11.480Z,74.97
2023-03-05T16:25:38.313Z,74.43
2023-03-05T16:28:05.462Z,75.45
2023-03-05T16:30:33.630Z,75.77
2023-03-05T16:33:00.368Z,75.58
2023-03-05T16:35:26.934Z,76.05
2023-03-05T16:37:53.640Z,76.32
2023-03-05T16:40:20.197Z,76.73
2023-03-05T16:42:46.943Z,77.89
2023-03-05T16:45:13.507Z,77.87
2023-03-05T16:47:41.535Z,77.73
2023-03-05T16:50:10.036Z,78.22
2023-03-05T16:52:37.089Z,78.40
2023-03-05T16:55:03.846Z,78.12
2023-03-05T16:57:30.582Z,78.07
2023-03-05T16:59:57.495Z,78.95
2023-03-05T17:02:24.289Z,79.01
2023-03-05T17:04:52.160Z,78.84
2023-03-05T17:07:18.849Z,79.15
2023-03-05T17:09:45.561Z,79.02
2023-03-05T17:12:12.107Z,79.05
2023-03-05T17:14:38.633Z,79.10
2023-03-05T17:17:05.309Z,79.84
2023-03-05T17:19:31.854Z,79.35
2023-03-05T17:21:59.789Z,80.19
2023-03-05T17:24:26.297Z,80.06
2023-03-05T17:26:52.950Z,80.37
2023-03-05T17:29:19.555Z,80.41
2023-03-05T17:31:46.259Z,80.59
2023-03-05T17:34:12.954Z,80.67
2023-03-05T17:36:39.666Z,80.97
2023-03-05T17:39:07.560Z,81.41
2023-03-05T17:41:34.194Z,81.71
2023-03-05T17:44:00.757Z,81.68
2023-03-05T17:46:27.397Z,82.07
2023-03-05T17:48:55.137Z,81.84
2023-03-05T17:51:21.785Z,82.78
2023-03-05T17:53:48.335Z,83.42
2023-03-05T17:56:16.329Z,83.87
2023-03-05T17:58:42.980Z,84.07
2023-03-05T18:01:09.636Z,84.46
2023-03-05T18:03:37.162Z,84.07
2023-03-05T18:06:04.694Z,84.76
2023-03-05T18:08:31.356Z,84.75
2023-03-05T18:10:57.948Z,85.19
2023-03-05T18:13:25.825Z,84.88
2023-03-05T18:15:52.423Z,86.13
2023-03-05T18:18:18.927Z,86.05
2023-03-05T18:20:46.145Z,86.94
2023-03-05T18:23:12.936Z,86.83
2023-03-05T18:25:39.811Z,86.57
2023-03-05T18:28:08.404Z,86.81
2023-03-05T18:30:37.132Z,87.09
2023-03-05T18:33:04.516Z,87.07
2023-03-05T18:35:31.525Z,87.22
2023-03-05T18:37:58.174Z,87.41
2023-03-05T18:40:27.877Z,87.83
2023-03-05T18:42:54.403Z,87.88
2023-03-05T18:45:22.709Z,88.28
2023-03-05T18:47:50.702Z,88.60
2023-03-05T18:50:17.800Z,89.08
2023-03-05T18:52:44.716Z,89.35
2023-03-05T18:55:14.994Z,89.35
2023-03-05T18:57:41.792Z,89.47
2023-03-05T19:00:10.427Z,89.79
2023-03-05T19:02:37.002Z,89.61
2023-03-05T19:05:05.269Z,89.86
2023-03-05T19:07:31.905Z,90.26
2023-03-05T19:09:59.782Z,90.13
2023-03-05T19:12:28.089Z,89.75
2023-03-05T19:14:54.567Z,90.38
2023-03-05T19:17:21.170Z,90.31
2023-03-05T19:19:51.235Z,90.58
2023-03-05T19:22:22.176Z,91.01
2023-03-05T19:24:48.870Z,91.12
2023-03-05T19:27:15.364Z,90.98
2023-03-05T19:29:43.124Z,91.15
2023-03-05T19:32:11.590Z,91.79
2023-03-05T19:34:38.238Z,91.55
2023-03-05T19:37:05.528Z,92.09
2023-03-05T19:39:34.166Z,91.87
2023-03-05T19:42:00.820Z,92.31
2023-03-05T19:44:27.512Z,92.36
2023-03-05T19:46:54.271Z,92.29
2023-03-05T19:49:21.414Z,92.41
2023-03-05T19:51:48.502Z,91.91
2023-03-05T19:54:16.909Z,92.16
2023-03-05T19:56:46.485Z,92.33
2023-03-05T19:59:14.191Z,92.05
2023-03-05T20:01:40.894Z,92.04
2023-03-05T20:04:07.592Z,92.58
2023-03-05T20:06:34.262Z,92.60
2023-03-05T20:09:00.859Z,92.73
2023-03-05T20:11:28.475Z,92.91
2023-03-05T20:13:57.013Z,92.71
2023-03-05T20:16:26.253Z,92.94
2023-03-05T20:18:54.045Z,93.04
2023-03-05T20:21:22.274Z,93.00
2023-03-05T20:23:49.315Z,93.34
2023-03-05T20:26:15.970Z,93.37
2023-03-05T20:28:42.552Z,93.48
2023-03-05T20:31:10.485Z,93.60
2023-03-05T20:33:37.278Z,93.35
2023-03-05T20:36:04.283Z,93.43
2023-03-05T20:38:31.677Z,93.75
2023-03-05T20:41:00.218Z,94.37
2023-03-05T20:43:28.415Z,94.79
2023-03-05T20:45:56.388Z,94.99
2023-03-05T20:48:25.369Z,94.28
2023-03-05T20:50:51.958Z,94.52
2023-03-05T20:53:19.474Z,94.44
2023-03-05T20:55:46.473Z,95.10
2023-03-05T20:58:13.500Z,94.92
2023-03-05T21:00:40.850Z,95.00
2023-03-05T21:03:08.473Z,95.21
2023-03-05T21:05:36.748Z,94.60
2023-03-05T21:08:04.421Z,95.29
2023-03-05T21:10:31.779Z,95.39
2023-03-05T21:13:00.794Z,94.85
2023-03-05T21:15:30.009Z,94.89
2023-03-05T21:17:57.470Z,95.06
2023-03-05T21:20:26.129Z,95.05
2023-03-05T21:22:54.119Z,94.91
2023-03-05T21:25:22.336Z,94.96
2023-03-05T21:27:51.384Z,95.17
2023-03-05T21:30:19.216Z,95.39
2023-03-05T21:32:46.353Z,94.96
2023-03-05T21:35:16.666Z,94.98
2023-03-05T21:37:43.430Z,95.02
2023-03-05T21:40:14.470Z,95.04
2023-03-05T21:42:42.074Z,94.72
2023-03-05T21:45:11.882Z,95.17
2023-03-05T21:47:39.185Z,95.19
2023-03-05T21:50:07.334Z,95.11
2023-03-05T21:52:34.099Z,94.84
2023-03-05T21:55:00.676Z,94.79
2023-03-05T21:57:29.131Z,94.95
2023-03-05T21:59:56.124Z,94.70
2023-03-05T22:02:22.816Z,94.60
2023-03-05T22:04:49.540Z,94.68
2023-03-05T22:07:17.672Z,94.47
2023-03-05T22:09:44.510Z,94.72
2023-03-05T22:12:11.173Z,94.92
2023-03-05T22:14:39.059Z,95.06
2023-03-05T22:17:05.796Z,95.25
2023-03-05T22:19:32.642Z,94.80
2023-03-05T22:21:59.751Z,94.65
2023-03-05T22:24:26.409Z,94.98
2023-03-05T22:26:53.031Z,94.06
2023-03-05T22:29:19.596Z,94.33
2023-03-05T22:31:47.708Z,94.01
2023-03-05T22:34:14.253Z,94.13
2023-03-05T22:36:40.820Z,94.30
2023-03-05T22:39:07.357Z,93.52
2023-03-05T22:41:33.996Z,93.97
2023-03-05T22:44:00.503Z,93.99
2023-03-05T22:46:27.424Z,94.13
2023-03-05T22:48:55.374Z,94.28
2023-03-05T22:51:21.986Z,94.04
2023-03-05T22:53:48.599Z,94.69
2023-03-05T22:56:17.463Z,94.65
2023-03-05T22:58:44.137Z,95.07
2023-03-05T23:01:12.228Z,95.00
2023-03-05T23:03:39.157Z,94.52
2023-03-05T23:06:08.393Z,94.68
2023-03-05T23:08:35.015Z,94.86
2023-03-05T23:11:06.970Z,94.72
2023-03-05T23:13:33.371Z,94.45
2023-03-05T23:15:59.948Z,94.90
2023-03-05T23:18:26.582Z,94.59
2023-03-05T23:20:53.163Z,94.67
2023-03-05T23:23:21.137Z,94.71
2023-03-05T23:25:50.259Z,94.96
2023-03-05T23:28:17.196Z,94.71
2023-03-05T23:30:43.789Z,93.86
2023-03-05T23:33:14.859Z,93.25
2023-03-05T23:35:43.244Z,92.25
2023-03-05T23:38:12.931Z,92.88
2023-03-05T23:40:43.380Z,92.73
2023-03-05T23:43:10.059Z,92.54
2023-03-05T23:45:36.968Z,93.02
2023-03-05T23:48:04.258Z,93.42
2023-03-05T23:50:33.386Z,93.33
2023-03-05T23:53:01.978Z,93.54
2023-03-05T23:55:31.047Z,93.15
2023-03-05T23:57:59.056Z,93.85
